createdAt,value
2023-02-25T00:01:16.145Z,3.60
2023-02-25T00:03:44.168Z,3.60
2023-02-25T00:06:13.513Z,3.60
2023-02-25T00:08:44.612Z,3.60
2023-02-25T00:11:13.002Z,3.50
2023-02-25T00:13:41.811Z,3.60
2023-02-25T00:16:10.407Z,3.60
2023-02-25T00:18:40.760Z,3.70
2023-02-25T00:21:09.656Z,3.70
2023-02-25T00:23:36.995Z,3.60
2023-02-25T00:26:06.997Z,3.50
2023-02-25T00:28:35.810Z,3.40
2023-02-25T00:31:17.597Z,3.40
2023-02-25T00:33:45.708Z,3.40
2023-02-25T00:36:20.155Z,3.30
2023-02-25T00:38:49.068Z,3.30
2023-02-25T00:41:18.234Z,3.20
2023-02-25T00:43:50.985Z,3.30
2023-02-25T00:46:18.434Z,3.30
2023-02-25T00:48:45.895Z,3.20
2023-02-25T00:51:24.979Z,3.20
2023-02-25T00:53:54.136Z,3.30
2023-02-25T00:56:21.660Z,3.20
2023-02-25T00:58:50.707Z,3.20
2023-02-25T01:01:17.852Z,3.10
2023-02-25T01:03:45.274Z,3.10
2023-02-25T01:06:12.330Z,3.10
2023-02-25T01:08:39.935Z,3.00
2023-02-25T01:11:16.109Z,3.10
2023-02-25T01:13:43.643Z,3.00
2023-02-25T01:16:13.093Z,3.10
2023-02-25T01:18:40.602Z,3.00
2023-02-25T01:21:07.830Z,2.80
2023-02-25T01:23:35.103Z,2.80
2023-02-25T01:26:04.056Z,2.70
2023-02-25T01:28:31.384Z,2.80
2023-02-25T01:30:58.363Z,2.60
2023-02-25T01:33:25.709Z,2.60
2023-02-25T01:35:52.605Z,2.80
2023-02-25T01:38:19.947Z,2.70
2023-02-25T01:40:46.944Z,2.80
2023-02-25T01:43:16.966Z,2.80
2023-02-25T01:45:44.841Z,2.80
2023-02-25T01:48:22.102Z,2.80
2023-02-25T01:51:06.000Z,2.80
2023-02-25T01:53:45.472Z,2.80
2023-02-25T01:56:16.689Z,2.80
2023-02-25T01:58:44.753Z,2.80
2023-02-25T02:01:16.662Z,2.70
2023-02-25T02:03:44.250Z,2.80
2023-02-25T02:06:28.255Z,2.70
2023-02-25T02:08:55.698Z,2.80
2023-02-25T02:11:22.621Z,2.70
2023-02-25T02:13:54.166Z,2.70
2023-02-25T02:16:42.660Z,2.70
2023-02-25T02:19:24.619Z,2.70
2023-02-25T02:22:00.603Z,2.70
2023-02-25T02:24:59.319Z,2.70
2023-02-25T02:27:32.318Z,2.70
2023-02-25T02:30:08.884Z,2.70
2023-02-25T02:32:54.751Z,2.70
2023-02-25T02:35:38.490Z,2.80
2023-02-25T02:38:33.833Z,2.70
2023-02-25T02:41:08.271Z,2.80
2023-02-25T02:43:47.488Z,2.80
2023-02-25T02:46:25.540Z,2.90
2023-02-25T02:49:16.961Z,2.80
2023-02-25T02:51:49.692Z,2.80
2023-02-25T02:54:18.302Z,2.80
2023-02-25T02:56:50.603Z,3.00
2023-02-25T02:59:52.150Z,2.80
2023-02-25T03:02:25.563Z,2.60
2023-02-25T03:04:56.021Z,2.60
2023-02-25T03:07:23.624Z,2.60
2023-02-25T03:09:53.872Z,2.50
2023-02-25T03:12:21.362Z,2.50
2023-02-25T03:14:48.390Z,2.50
2023-02-25T03:17:26.647Z,2.60
2023-02-25T03:20:30.709Z,2.60
2023-02-25T03:23:02.414Z,2.50
2023-02-25T03:25:47.402Z,2.50
2023-02-25T03:28:32.565Z,2.50
2023-02-25T03:31:21.686Z,2.50
2023-02-25T03:33:55.881Z,2.50
2023-02-25T03:36:45.952Z,2.50
2023-02-25T03:39:19.536Z,2.50
2023-02-25T03:41:53.436Z,2.50
2023-02-25T03:44:31.413Z,2.60
2023-02-25T03:46:59.654Z,2.50
2023-02-25T03:49:33.117Z,2.50
2023-02-25T03:52:03.584Z,2.50
2023-02-25T03:54:31.095Z,2.50
2023-02-25T03:56:58.341Z,2.50
2023-02-25T03:59:27.905Z,2.50
2023-02-25T04:01:57.539Z,2.60
2023-02-25T04:04:25.029Z,2.60
2023-02-25T04:06:52.387Z,2.60
2023-02-25T04:09:20.035Z,2.70
2023-02-25T04:11:48.926Z,2.70
2023-02-25T04:14:18.279Z,2.70
2023-02-25T04:16:45.433Z,2.60
2023-02-25T04:19:12.657Z,2.50
2023-02-25T04:21:40.066Z,2.50
2023-02-25T04:24:08.295Z,2.60
2023-02-25T04:26:36.318Z,2.50
2023-02-25T04:29:04.134Z,2.50
2023-02-25T04:31:31.320Z,2.50
2023-02-25T04:33:58.818Z,2.50
2023-02-25T04:36:32.530Z,2.60
2023-02-25T04:39:03.429Z,2.50
2023-02-25T04:41:35.720Z,2.50
2023-02-25T04:44:04.359Z,2.50
2023-02-25T04:46:33.291Z,2.60
2023-02-25T04:49:01.321Z,2.50
2023-02-25T04:51:28.850Z,2.60
2023-02-25T04:53:56.413Z,2.80
2023-02-25T04:56:23.703Z,2.70
2023-02-25T04:58:51.370Z,2.70
2023-02-25T05:01:18.334Z,2.90
2023-02-25T05:03:45.787Z,3.00
2023-02-25T05:06:12.685Z,3.00
2023-02-25T05:08:41.076Z,3.10
2023-02-25T05:11:08.127Z,3.10
2023-02-25T05:13:35.376Z,3.00
2023-02-25T05:16:11.162Z,3.00
2023-02-25T05:18:40.348Z,3.00
2023-02-25T05:21:16.420Z,2.90
2023-02-25T05:23:45.629Z,3.00
2023-02-25T05:26:13.933Z,2.90
2023-02-25T05:28:43.546Z,2.70
2023-02-25T05:31:12.350Z,2.70
2023-02-25T05:33:40.561Z,2.50
2023-02-25T05:36:10.130Z,2.40
2023-02-25T05:38:37.776Z,2.40
2023-02-25T05:41:08.350Z,2.40
2023-02-25T05:43:37.376Z,2.20
2023-02-25T05:46:05.564Z,2.10
2023-02-25T05:48:33.072Z,2.10
2023-02-25T05:51:05.565Z,2.00
2023-02-25T05:53:33.421Z,2.00
2023-02-25T05:56:04.814Z,2.00
2023-02-25T05:58:32.596Z,2.10
2023-02-25T06:00:59.909Z,1.90
2023-02-25T06:03:27.261Z,1.80
2023-02-25T06:05:54.293Z,1.80
2023-02-25T06:08:21.808Z,1.70
2023-02-25T06:10:48.871Z,1.70
2023-02-25T06:13:16.194Z,1.70
2023-02-25T06:15:43.504Z,1.80
2023-02-25T06:18:11.143Z,1.80
2023-02-25T06:20:38.250Z,1.90
2023-02-25T06:23:05.711Z,1.80
2023-02-25T06:25:32.760Z,1.90
2023-02-25T06:28:01.359Z,1.90
2023-02-25T06:30:29.417Z,1.90
2023-02-25T06:32:57.550Z,2.00
2023-02-25T06:35:25.169Z,2.10
2023-02-25T06:37:57.765Z,2.10
2023-02-25T06:40:25.193Z,2.20
2023-02-25T06:42:52.600Z,2.20
2023-02-25T06:45:19.695Z,2.20
2023-02-25T06:47:47.208Z,2.20
2023-02-25T06:50:14.319Z,2.40
2023-02-25T06:52:41.977Z,2.40
2023-02-25T06:55:09.722Z,2.40
2023-02-25T06:57:37.200Z,2.50
2023-02-25T07:00:05.583Z,2.50
2023-02-25T07:02:32.991Z,2.60
2023-02-25T07:05:01.333Z,2.70
2023-02-25T07:07:29.469Z,2.70
2023-02-25T07:09:57.648Z,2.70
2023-02-25T07:12:25.241Z,2.80
2023-02-25T07:14:52.207Z,3.10
2023-02-25T07:17:19.612Z,3.20
2023-02-25T07:19:46.533Z,3.40
2023-02-25T07:22:18.422Z,3.50
2023-02-25T07:24:45.781Z,3.60
2023-02-25T07:27:14.149Z,3.60
2023-02-25T07:29:41.314Z,3.70
2023-02-25T07:32:09.202Z,3.80
2023-02-25T07:34:39.072Z,3.80
2023-02-25T07:37:06.331Z,3.90
2023-02-25T07:39:33.299Z,3.90
2023-02-25T07:42:00.715Z,3.80
2023-02-25T07:44:27.660Z,3.80
2023-02-25T07:46:55.017Z,3.80
2023-02-25T07:49:22.021Z,3.80
2023-02-25T07:51:49.410Z,3.90
2023-02-25T07:54:17.247Z,3.80
2023-02-25T07:56:44.550Z,3.80
2023-02-25T07:59:11.574Z,3.80
2023-02-25T08:01:39.646Z,3.70
2023-02-25T08:04:07.240Z,3.70
2023-02-25T08:06:39.310Z,3.70
2023-02-25T08:09:13.994Z,3.70
2023-02-25T08:11:41.663Z,3.70
2023-02-25T08:14:08.607Z,3.80
2023-02-25T08:16:37.443Z,3.80
2023-02-25T08:19:06.048Z,3.70
2023-02-25T08:21:33.922Z,3.70
2023-02-25T08:24:00.943Z,3.60
2023-02-25T08:26:28.500Z,3.60
2023-02-25T08:28:56.697Z,3.70
2023-02-25T08:31:24.461Z,3.60
2023-02-25T08:33:54.970Z,3.50
2023-02-25T08:36:25.635Z,3.40
2023-02-25T08:38:54.131Z,3.50
2023-02-25T08:41:22.749Z,3.60
2023-02-25T08:43:52.076Z,3.80
2023-02-25T08:46:21.115Z,3.70
2023-02-25T08:48:53.061Z,3.80
2023-02-25T08:51:22.626Z,3.70
2023-02-25T08:53:50.047Z,3.70
2023-02-25T08:56:17.766Z,3.70
2023-02-25T08:58:44.813Z,3.70
2023-02-25T09:01:17.767Z,3.70
2023-02-25T09:03:53.728Z,3.60
2023-02-25T09:06:24.118Z,3.60
2023-02-25T09:08:52.209Z,3.70
2023-02-25T09:11:20.749Z,3.90
2023-02-25T09:13:48.155Z,3.90
2023-02-25T09:16:17.448Z,4.00
2023-02-25T09:18:50.131Z,4.20
2023-02-25T09:21:18.823Z,4.20
2023-02-25T09:23:46.818Z,4.10
2023-02-25T09:26:14.902Z,4.20
2023-02-25T09:28:41.845Z,4.40
2023-02-25T09:31:09.946Z,4.50
2023-02-25T09:33:37.902Z,4.40
2023-02-25T09:36:08.517Z,4.50
2023-02-25T09:38:39.413Z,4.60
2023-02-25T09:41:33.499Z,4.30
2023-02-25T09:44:14.295Z,4.20
2023-02-25T09:46:49.175Z,4.30
2023-02-25T09:49:26.114Z,4.20
2023-02-25T09:52:12.505Z,4.20
2023-02-25T09:54:48.240Z,4.30
2023-02-25T09:57:19.268Z,4.30
2023-02-25T09:59:47.910Z,4.20
2023-02-25T10:02:27.776Z,4.20
2023-02-25T10:05:39.160Z,4.10
2023-02-25T10:08:38.810Z,4.00
2023-02-25T10:11:11.233Z,3.90
2023-02-25T10:13:55.689Z,4.00
2023-02-25T10:16:32.083Z,4.10
2023-02-25T10:19:26.945Z,4.30
2023-02-25T10:22:09.851Z,4.30
2023-02-25T10:24:45.363Z,4.10
2023-02-25T10:27:20.772Z,4.00
2023-02-25T10:29:52.668Z,4.00
2023-02-25T10:32:26.962Z,3.90
2023-02-25T10:34:59.528Z,3.90
2023-02-25T10:37:32.779Z,3.80
2023-02-25T10:40:04.775Z,3.90
2023-02-25T10:42:32.265Z,3.90
2023-02-25T10:45:09.965Z,4.10
2023-02-25T10:47:40.723Z,4.10
2023-02-25T10:50:43.033Z,4.10
2023-02-25T10:53:18.534Z,4.00
2023-02-25T10:55:54.554Z,3.80
2023-02-25T10:58:37.562Z,3.80
2023-02-25T11:01:17.645Z,3.90
2023-02-25T11:03:59.105Z,3.90
2023-02-25T11:06:26.697Z,3.80
2023-02-25T11:08:56.282Z,3.70
2023-02-25T11:11:31.864Z,3.70
2023-02-25T11:14:02.965Z,3.70
2023-02-25T11:16:32.197Z,3.70
2023-02-25T11:19:02.627Z,3.60
2023-02-25T11:21:36.522Z,3.60
2023-02-25T11:24:26.522Z,3.40
2023-02-25T11:26:54.461Z,3.30
2023-02-25T11:29:35.042Z,3.20
2023-02-25T11:32:18.551Z,3.10
2023-02-25T11:35:05.145Z,3.00
2023-02-25T11:37:37.197Z,3.10
2023-02-25T11:40:29.093Z,3.20
2023-02-25T11:43:05.276Z,3.30
2023-02-25T11:45:47.519Z,3.40
2023-02-25T11:48:49.149Z,3.50
2023-02-25T11:51:29.482Z,3.60
2023-02-25T11:54:23.899Z,3.60
2023-02-25T11:57:05.259Z,3.60
2023-02-25T11:59:38.595Z,3.70
2023-02-25T12:02:24.671Z,3.70
2023-02-25T12:05:13.104Z,3.80
2023-02-25T12:08:00.040Z,3.80
2023-02-25T12:11:09.738Z,3.80
2023-02-25T12:13:53.462Z,3.80
2023-02-25T12:16:51.430Z,3.80
2023-02-25T12:19:57.082Z,3.60
2023-02-25T12:22:46.807Z,3.60
2023-02-25T12:25:40.489Z,3.40
2023-02-25T12:28:23.032Z,3.20
2023-02-25T12:31:25.734Z,2.90
2023-02-25T12:34:02.303Z,2.90
2023-02-25T12:36:50.487Z,2.90
2023-02-25T12:39:48.613Z,3.00
2023-02-25T12:42:47.540Z,3.00
2023-02-25T12:45:23.802Z,2.80
2023-02-25T12:48:21.679Z,2.60
2023-02-25T12:51:16.329Z,2.60
2023-02-25T12:53:54.661Z,2.80
2023-02-25T12:56:40.953Z,2.80
2023-02-25T12:59:32.481Z,2.80
2023-02-25T13:02:31.681Z,2.70
2023-02-25T13:05:32.958Z,2.70
2023-02-25T13:08:29.429Z,2.70
2023-02-25T13:10:59.587Z,2.70
2023-02-25T13:14:00.978Z,2.70
2023-02-25T13:16:52.843Z,2.70
2023-02-25T13:19:41.047Z,2.60
2023-02-25T13:22:30.863Z,2.60
2023-02-25T13:25:19.990Z,2.60
2023-02-25T13:28:07.828Z,2.60
2023-02-25T13:30:53.837Z,2.50
2023-02-25T13:33:43.862Z,2.50
2023-02-25T13:36:32.686Z,2.40
2023-02-25T13:39:19.568Z,2.40
2023-02-25T13:42:17.856Z,2.30
2023-02-25T13:45:22.823Z,2.30
2023-02-25T13:48:05.345Z,2.30
2023-02-25T13:50:50.154Z,2.30
2023-02-25T13:53:42.231Z,2.30
2023-02-25T13:56:12.274Z,2.30
2023-02-25T13:58:39.482Z,2.30
2023-02-25T14:01:28.476Z,2.30
2023-02-25T14:04:10.977Z,2.30
2023-02-25T14:07:12.972Z,2.30
2023-02-25T14:09:50.688Z,2.10
2023-02-25T14:12:44.271Z,1.80
2023-02-25T14:15:20.847Z,1.80
2023-02-25T14:17:53.737Z,1.90
2023-02-25T14:20:37.557Z,1.80
2023-02-25T14:23:32.229Z,1.80
2023-02-25T14:26:14.632Z,1.70
2023-02-25T14:29:11.064Z,1.70
2023-02-25T14:32:04.932Z,1.60
2023-02-25T14:34:50.554Z,1.50
2023-02-25T14:37:26.430Z,1.50
2023-02-25T14:40:02.343Z,1.60
2023-02-25T14:42:54.300Z,1.80
2023-02-25T14:45:27.819Z,1.80
2023-02-25T14:48:03.742Z,1.80
2023-02-25T14:50:46.979Z,1.70
2023-02-25T14:53:43.118Z,1.60
2023-02-25T14:56:37.804Z,1.50
2023-02-25T14:59:25.357Z,1.40
2023-02-25T15:02:14.163Z,1.40
2023-02-25T15:04:59.590Z,1.50
2023-02-25T15:07:37.318Z,1.50
2023-02-25T15:10:29.854Z,1.50
2023-02-25T15:13:05.833Z,1.60
2023-02-25T15:16:18.402Z,1.70
2023-02-25T15:19:03.273Z,1.70
2023-02-25T15:21:46.517Z,1.70
2023-02-25T15:24:36.472Z,1.60
2023-02-25T15:27:41.021Z,1.60
2023-02-25T15:30:13.844Z,1.60
2023-02-25T15:32:59.556Z,1.60
2023-02-25T15:35:35.608Z,1.50
2023-02-25T15:38:10.121Z,1.50
2023-02-25T15:40:45.595Z,1.40
2023-02-25T15:43:12.786Z,1.30
2023-02-25T15:45:41.422Z,1.30
2023-02-25T15:48:11.514Z,1.40
2023-02-25T15:50:47.333Z,1.40
2023-02-25T15:53:24.630Z,1.30
2023-02-25T15:56:03.811Z,1.20
2023-02-25T15:58:31.152Z,1.10
2023-02-25T16:00:58.995Z,1.10
2023-02-25T16:03:32.340Z,1.10
2023-02-25T16:06:04.692Z,1.10
2023-02-25T16:08:41.294Z,1.10
2023-02-25T16:11:21.368Z,1.10
2023-02-25T16:13:49.051Z,1.00
2023-02-25T16:16:17.735Z,0.90
2023-02-25T16:18:50.398Z,0.90
2023-02-25T16:21:34.024Z,0.90
2023-02-25T16:24:01.654Z,0.90
2023-02-25T16:27:18.374Z,1.00
2023-02-25T16:30:00.052Z,1.00
2023-02-25T16:32:40.784Z,0.90
2023-02-25T16:35:22.264Z,0.90
2023-02-25T16:38:19.456Z,0.90
2023-02-25T16:40:46.910Z,1.00
2023-02-25T16:43:26.887Z,1.00
2023-02-25T16:46:03.563Z,1.00
2023-02-25T16:48:50.063Z,1.00
2023-02-25T16:51:36.605Z,1.00
2023-02-25T16:54:13.090Z,1.00
2023-02-25T16:56:43.249Z,1.00
2023-02-25T16:59:10.175Z,1.00
2023-02-25T17:01:38.981Z,1.00
2023-02-25T17:04:15.235Z,0.90
2023-02-25T17:06:43.167Z,0.90
2023-02-25T17:09:23.931Z,1.00
2023-02-25T17:11:55.092Z,1.00
2023-02-25T17:14:23.633Z,1.00
2023-02-25T17:16:52.913Z,1.00
2023-02-25T17:19:22.095Z,1.00
2023-02-25T17:21:58.703Z,1.10
2023-02-25T17:24:31.382Z,1.10
2023-02-25T17:27:00.291Z,1.10
2023-02-25T17:29:35.625Z,1.10
2023-02-25T17:32:14.104Z,1.10
2023-02-25T17:34:42.095Z,1.20
2023-02-25T17:37:12.421Z,1.30
2023-02-25T17:39:40.388Z,1.40
2023-02-25T17:42:35.540Z,1.40
2023-02-25T17:45:04.997Z,1.40
2023-02-25T17:47:34.619Z,1.50
2023-02-25T17:50:41.269Z,1.50
2023-02-25T17:53:39.041Z,1.50
2023-02-25T17:56:22.740Z,1.50
2023-02-25T17:58:52.872Z,1.60
2023-02-25T18:01:23.705Z,1.60
2023-02-25T18:03:52.871Z,1.60
2023-02-25T18:06:46.252Z,1.60
2023-02-25T18:09:40.896Z,1.60
2023-02-25T18:12:24.243Z,1.60
2023-02-25T18:14:53.837Z,1.50
2023-02-25T18:17:32.933Z,1.50
2023-02-25T18:20:07.372Z,1.60
2023-02-25T18:22:45.345Z,1.50
2023-02-25T18:25:35.963Z,1.60
2023-02-25T18:28:04.988Z,1.60
2023-02-25T18:30:33.162Z,1.60
2023-02-25T18:33:00.302Z,1.60
2023-02-25T18:35:30.710Z,1.70
2023-02-25T18:37:59.248Z,1.70
2023-02-25T18:40:35.736Z,1.70
2023-02-25T18:43:03.867Z,1.80
2023-02-25T18:45:33.254Z,1.70
2023-02-25T18:48:01.655Z,1.70
2023-02-25T18:50:30.997Z,1.70
2023-02-25T18:52:58.883Z,1.70
2023-02-25T18:55:29.229Z,1.60
2023-02-25T18:57:56.379Z,1.60
2023-02-25T19:00:27.249Z,1.60
2023-02-25T19:03:02.859Z,1.60
2023-02-25T19:05:30.960Z,1.50
2023-02-25T19:07:57.947Z,1.50
2023-02-25T19:10:28.863Z,1.50
2023-02-25T19:13:02.805Z,1.50
2023-02-25T19:15:30.348Z,1.40
2023-02-25T19:17:57.309Z,1.30
2023-02-25T19:20:24.652Z,1.30
2023-02-25T19:22:53.220Z,1.30
2023-02-25T19:25:25.561Z,1.30
2023-02-25T19:27:53.999Z,1.30
2023-02-25T19:30:25.685Z,1.30
2023-02-25T19:32:53.066Z,1.30
2023-02-25T19:35:20.337Z,1.40
2023-02-25T19:37:47.834Z,1.30
2023-02-25T19:40:16.624Z,1.40
2023-02-25T19:42:44.936Z,1.40
2023-02-25T19:45:17.711Z,1.50
2023-02-25T19:47:45.709Z,1.50
2023-02-25T19:50:14.368Z,1.50
2023-02-25T19:52:42.500Z,1.60
2023-02-25T19:55:14.218Z,1.70
2023-02-25T19:57:41.990Z,1.60
2023-02-25T20:00:13.949Z,1.50
2023-02-25T20:02:41.180Z,1.60
2023-02-25T20:05:09.559Z,1.60
2023-02-25T20:07:36.737Z,1.60
2023-02-25T20:10:05.370Z,1.60
2023-02-25T20:12:32.335Z,1.70
2023-02-25T20:14:59.584Z,1.60
2023-02-25T20:17:26.594Z,1.50
2023-02-25T20:19:53.880Z,1.60
2023-02-25T20:22:23.732Z,1.70
2023-02-25T20:24:51.387Z,1.60
2023-02-25T20:27:18.632Z,1.70
2023-02-25T20:29:45.961Z,1.70
2023-02-25T20:32:13.339Z,1.70
2023-02-25T20:34:40.736Z,1.70
2023-02-25T20:37:33.599Z,1.70
2023-02-25T20:40:01.110Z,1.80
2023-02-25T20:42:30.349Z,1.80
2023-02-25T20:44:59.193Z,1.80
2023-02-25T20:47:37.467Z,1.80
2023-02-25T20:50:06.889Z,1.80
2023-02-25T20:52:34.204Z,1.70
2023-02-25T20:55:01.641Z,1.60
2023-02-25T20:57:28.877Z,1.70
2023-02-25T20:59:56.189Z,1.80
2023-02-25T21:02:23.467Z,1.70
2023-02-25T21:04:51.394Z,1.60
2023-02-25T21:07:18.378Z,1.60
2023-02-25T21:09:45.665Z,1.50
2023-02-25T21:12:12.657Z,1.30
2023-02-25T21:14:39.963Z,1.00
2023-02-25T21:17:09.466Z,0.90
2023-02-25T21:19:39.961Z,1.00
2023-02-25T21:22:08.238Z,1.00
2023-02-25T21:24:36.678Z,1.00
2023-02-25T21:27:04.164Z,1.00
2023-02-25T21:29:32.448Z,0.90
2023-02-25T21:31:59.570Z,1.00
2023-02-25T21:34:27.267Z,1.10
2023-02-25T21:36:57.241Z,1.10
2023-02-25T21:39:26.420Z,1.00
2023-02-25T21:41:53.810Z,1.00
2023-02-25T21:44:22.216Z,1.10
2023-02-25T21:46:49.222Z,1.10
2023-02-25T21:49:16.988Z,1.00
2023-02-25T21:51:43.974Z,1.00
2023-02-25T21:54:12.130Z,1.00
2023-02-25T21:56:40.796Z,1.10
2023-02-25T21:59:08.190Z,1.10
2023-02-25T22:01:40.634Z,1.10
2023-02-25T22:04:08.829Z,1.10
2023-02-25T22:06:35.892Z,1.10
2023-02-25T22:09:03.856Z,1.00
2023-02-25T22:11:33.265Z,1.10
2023-02-25T22:14:01.846Z,1.10
2023-02-25T22:16:29.421Z,1.10
2023-02-25T22:18:57.345Z,1.20
2023-02-25T22:21:26.984Z,1.20
2023-02-25T22:23:57.198Z,0.90
2023-02-25T22:26:26.648Z,0.80
2023-02-25T22:28:56.149Z,0.70
2023-02-25T22:31:24.197Z,0.60
2023-02-25T22:33:51.895Z,0.60
2023-02-25T22:36:19.542Z,0.50
2023-02-25T22:38:48.494Z,0.40
2023-02-25T22:41:22.860Z,0.40
2023-02-25T22:43:50.857Z,0.30
2023-02-25T22:46:20.785Z,0.40
2023-02-25T22:48:49.830Z,0.40
2023-02-25T22:51:25.952Z,0.40
2023-02-25T22:53:54.249Z,0.40
2023-02-25T22:56:22.055Z,0.30
2023-02-25T22:58:49.736Z,0.30
2023-02-25T23:01:19.370Z,0.40
2023-02-25T23:03:48.101Z,0.50
2023-02-25T23:06:17.113Z,0.60
2023-02-25T23:08:44.750Z,0.70
2023-02-25T23:11:32.340Z,0.60
2023-02-25T23:14:02.957Z,0.50
2023-02-25T23:16:33.531Z,0.40
2023-02-25T23:19:03.147Z,0.40
2023-02-25T23:21:30.578Z,0.40
2023-02-25T23:24:00.408Z,0.50
2023-02-25T23:26:33.661Z,0.40
2023-02-25T23:29:03.712Z,0.50
2023-02-25T23:31:36.963Z,0.60
2023-02-25T23:34:10.549Z,0.50
2023-02-25T23:36:38.077Z,0.50
2023-02-25T23:39:07.011Z,0.60
2023-02-25T23:41:35.355Z,0.60
2023-02-25T23:44:02.784Z,0.50
2023-02-25T23:46:31.868Z,0.70
2023-02-25T23:49:01.593Z,0.70
2023-02-25T23:51:29.317Z,0.70
2023-02-25T23:53:58.761Z,0.70
2023-02-25T23:56:29.597Z,0.60
2023-02-25T23:58:57.235Z,0.70
